createdAt,value
2023-12-22T00:02:26.952Z,13.20
2023-12-22T00:04:54.087Z,13.20
2023-12-22T00:07:21.495Z,13.30
2023-12-22T00:09:48.498Z,13.20
2023-12-22T00:12:15.263Z,13.30
2023-12-22T00:14:42.009Z,13.30
2023-12-22T00:17:08.915Z,13.30
2023-12-22T00:19:36.020Z,13.30
2023-12-22T00:22:04.616Z,13.30
2023-12-22T00:24:31.786Z,13.30
2023-12-22T00:26:58.689Z,13.20
2023-12-22T00:29:25.646Z,13.20
2023-12-22T00:31:52.462Z,13.20
2023-12-22T00:34:20.754Z,13.20
2023-12-22T00:36:47.547Z,13.20
2023-12-22T00:39:14.524Z,13.30
2023-12-22T00:41:41.260Z,13.20
2023-12-22T00:44:08.048Z,13.20
2023-12-22T00:46:34.730Z,13.20
2023-12-22T00:49:01.542Z,13.20
2023-12-22T00:51:28.246Z,13.20
2023-12-22T00:53:55.043Z,13.20
2023-12-22T00:56:21.865Z,13.20
2023-12-22T00:58:55.307Z,13.20
2023-12-22T01:01:29.535Z,13.20
2023-12-22T01:03:56.334Z,13.20
2023-12-22T01:06:26.123Z,13.20
2023-12-22T01:08:54.483Z,13.30
2023-12-22T01:11:21.477Z,13.30
2023-12-22T01:13:48.244Z,13.40
2023-12-22T01:16:16.991Z,13.30
2023-12-22T01:18:45.681Z,13.40
2023-12-22T01:21:13.044Z,13.40
2023-12-22T01:23:39.880Z,13.40
2023-12-22T01:26:06.601Z,13.40
2023-12-22T01:28:35.110Z,13.40
2023-12-22T01:31:02.539Z,13.40
2023-12-22T01:33:30.538Z,13.40
2023-12-22T01:35:57.618Z,13.40
2023-12-22T01:38:24.420Z,13.40
2023-12-22T01:40:51.164Z,13.40
2023-12-22T01:43:22.738Z,13.30
2023-12-22T01:45:53.419Z,13.30
2023-12-22T01:48:20.289Z,13.30
2023-12-22T01:50:47.179Z,13.20
2023-12-22T01:53:14.063Z,13.30
2023-12-22T01:55:40.908Z,13.20
2023-12-22T01:58:08.650Z,13.20
2023-12-22T02:00:38.420Z,13.20
2023-12-22T02:03:05.608Z,13.20
2023-12-22T02:05:32.397Z,13.20
2023-12-22T02:07:59.558Z,13.20
2023-12-22T02:10:26.521Z,13.20
2023-12-22T02:12:53.654Z,13.10
2023-12-22T02:15:20.622Z,13.10
2023-12-22T02:18:02.816Z,13.10
2023-12-22T02:20:29.790Z,13.10
2023-12-22T02:22:56.608Z,13.10
2023-12-22T02:25:23.491Z,13.10
2023-12-22T02:28:04.788Z,13.10
2023-12-22T02:30:43.227Z,13.10
2023-12-22T02:33:11.438Z,13.20
2023-12-22T02:35:39.451Z,13.20
2023-12-22T02:38:07.976Z,13.20
2023-12-22T02:40:35.892Z,13.20
2023-12-22T02:43:04.379Z,13.20
2023-12-22T02:45:31.498Z,13.10
2023-12-22T02:47:58.426Z,13.10
2023-12-22T02:50:25.463Z,13.20
2023-12-22T02:52:52.211Z,13.20
2023-12-22T02:55:19.893Z,13.20
2023-12-22T02:57:46.826Z,13.20
2023-12-22T03:00:13.960Z,13.20
2023-12-22T03:02:40.658Z,13.20
2023-12-22T03:05:07.688Z,13.10
2023-12-22T03:07:34.625Z,13.10
2023-12-22T03:10:01.501Z,13.10
2023-12-22T03:12:28.267Z,13.10
2023-12-22T03:14:55.081Z,13.10
2023-12-22T03:17:21.825Z,13.10
2023-12-22T03:19:48.620Z,13.10
2023-12-22T03:22:17.985Z,13.10
2023-12-22T03:24:45.579Z,13.10
2023-12-22T03:27:17.230Z,13.10
2023-12-22T03:29:45.156Z,13.10
2023-12-22T03:32:11.943Z,13.10
2023-12-22T03:34:38.794Z,13.10
2023-12-22T03:37:05.463Z,13.10
2023-12-22T03:39:32.253Z,13.10
2023-12-22T03:41:58.987Z,13.10
2023-12-22T03:44:26.726Z,13.10
2023-12-22T03:46:53.691Z,13.00
2023-12-22T03:49:20.965Z,13.00
2023-12-22T03:51:47.732Z,13.00
2023-12-22T03:54:16.975Z,13.00
2023-12-22T03:56:43.778Z,13.00
2023-12-22T03:59:10.493Z,13.00
2023-12-22T04:01:37.318Z,13.00
2023-12-22T04:04:04.072Z,13.00
2023-12-22T04:06:30.751Z,13.00
2023-12-22T04:08:57.520Z,13.00
2023-12-22T04:11:24.395Z,13.00
2023-12-22T04:13:51.129Z,13.00
2023-12-22T04:16:18.124Z,13.00
2023-12-22T04:18:45.061Z,13.00
2023-12-22T04:21:11.901Z,13.00
2023-12-22T04:23:38.755Z,13.00
2023-12-22T04:26:05.508Z,13.00
2023-12-22T04:28:32.225Z,13.00
2023-12-22T04:30:59.078Z,13.00
2023-12-22T04:33:25.887Z,13.00
2023-12-22T04:35:52.628Z,13.00
2023-12-22T04:38:19.434Z,12.90
2023-12-22T04:40:46.229Z,12.90
2023-12-22T04:43:12.978Z,12.90
2023-12-22T04:45:39.754Z,12.90
2023-12-22T04:48:07.288Z,12.90
2023-12-22T04:50:34.075Z,12.90
2023-12-22T04:53:00.892Z,12.90
2023-12-22T04:55:27.725Z,12.90
2023-12-22T04:57:54.500Z,13.00
2023-12-22T05:00:21.201Z,13.00
2023-12-22T05:02:47.949Z,13.00
2023-12-22T05:05:14.781Z,13.00
2023-12-22T05:07:41.603Z,13.00
2023-12-22T05:10:08.846Z,13.00
2023-12-22T05:12:35.699Z,13.00
2023-12-22T05:15:02.559Z,13.00
2023-12-22T05:17:29.356Z,13.00
2023-12-22T05:19:56.051Z,13.00
2023-12-22T05:22:22.882Z,13.00
2023-12-22T05:24:49.795Z,13.00
2023-12-22T05:27:16.494Z,13.00
2023-12-22T05:29:43.277Z,13.00
2023-12-22T05:32:10.116Z,13.00
2023-12-22T05:34:37.846Z,13.00
2023-12-22T05:37:04.969Z,13.00
2023-12-22T05:39:32.042Z,13.00
2023-12-22T05:41:58.906Z,13.00
2023-12-22T05:44:25.750Z,13.00
2023-12-22T05:46:52.557Z,13.00
2023-12-22T05:49:19.552Z,13.00
2023-12-22T05:51:46.445Z,13.00
2023-12-22T05:54:13.656Z,13.00
2023-12-22T05:56:40.693Z,13.00
2023-12-22T05:59:07.602Z,13.00
2023-12-22T06:01:34.484Z,13.00
2023-12-22T06:04:01.297Z,13.00
2023-12-22T06:06:28.978Z,13.00
2023-12-22T06:08:55.884Z,13.00
2023-12-22T06:11:23.346Z,13.00
2023-12-22T06:13:50.538Z,13.00
2023-12-22T06:16:19.484Z,13.00
2023-12-22T06:18:46.602Z,13.00
2023-12-22T06:21:13.562Z,13.00
2023-12-22T06:23:40.742Z,13.00
2023-12-22T06:26:13.925Z,12.90
2023-12-22T06:28:41.713Z,12.90
2023-12-22T06:31:10.218Z,12.90
2023-12-22T06:33:37.100Z,12.90
2023-12-22T06:36:04.119Z,12.90
2023-12-22T06:38:32.233Z,13.00
2023-12-22T06:40:59.058Z,12.90
2023-12-22T06:43:26.026Z,12.90
2023-12-22T06:45:56.076Z,13.00
2023-12-22T06:48:23.087Z,12.90
2023-12-22T06:50:50.127Z,12.90
2023-12-22T06:53:25.259Z,12.90
2023-12-22T06:55:53.101Z,12.90
2023-12-22T06:58:22.662Z,12.90
2023-12-22T07:00:49.869Z,12.90
2023-12-22T07:03:18.735Z,12.90
2023-12-22T07:05:45.785Z,12.90
2023-12-22T07:08:12.852Z,12.90
2023-12-22T07:10:39.875Z,12.90
2023-12-22T07:13:07.624Z,12.90
2023-12-22T07:15:34.486Z,12.90
2023-12-22T07:18:02.500Z,12.90
2023-12-22T07:20:29.860Z,12.90
2023-12-22T07:22:58.017Z,12.90
2023-12-22T07:25:25.001Z,12.90
2023-12-22T07:27:53.211Z,12.90
2023-12-22T07:30:21.383Z,12.90
2023-12-22T07:32:53.294Z,12.90
2023-12-22T07:35:20.467Z,12.90
2023-12-22T07:37:47.768Z,12.90
2023-12-22T07:40:16.331Z,12.90
2023-12-22T07:42:44.317Z,12.90
2023-12-22T07:45:11.062Z,12.90
2023-12-22T07:47:38.575Z,12.90
2023-12-22T07:50:09.578Z,12.90
2023-12-22T07:52:40.264Z,12.90
2023-12-22T07:55:11.842Z,12.90
2023-12-22T07:57:39.807Z,12.90
2023-12-22T08:00:07.445Z,12.90
2023-12-22T08:02:34.359Z,12.90
2023-12-22T08:05:01.400Z,13.00
2023-12-22T08:07:28.273Z,13.00
2023-12-22T08:09:55.201Z,13.00
2023-12-22T08:12:21.890Z,13.00
2023-12-22T08:14:48.635Z,13.00
2023-12-22T08:17:15.329Z,12.90
2023-12-22T08:19:45.933Z,12.90
2023-12-22T08:22:14.708Z,12.90
2023-12-22T08:24:42.759Z,12.90
2023-12-22T08:27:10.105Z,12.90
2023-12-22T08:29:37.013Z,12.90
2023-12-22T08:32:05.179Z,12.90
2023-12-22T08:34:32.148Z,12.90
2023-12-22T08:36:59.279Z,12.90
2023-12-22T08:39:26.247Z,12.90
2023-12-22T08:41:54.293Z,12.90
2023-12-22T08:44:21.302Z,12.90
2023-12-22T08:46:48.129Z,12.90
2023-12-22T08:49:15.081Z,12.90
2023-12-22T08:51:42.474Z,12.90
2023-12-22T08:54:09.382Z,13.00
2023-12-22T08:56:36.630Z,13.00
2023-12-22T08:59:03.515Z,13.00
2023-12-22T09:01:30.369Z,13.00
2023-12-22T09:03:57.091Z,13.10
2023-12-22T09:06:25.833Z,13.10
2023-12-22T09:08:53.807Z,13.20
2023-12-22T09:11:21.748Z,13.20
2023-12-22T09:13:48.624Z,13.20
2023-12-22T09:16:21.168Z,13.30
2023-12-22T09:18:48.084Z,13.30
2023-12-22T09:21:15.076Z,13.30
2023-12-22T09:23:45.626Z,13.30
2023-12-22T09:26:12.443Z,13.30
2023-12-22T09:28:39.302Z,13.30
2023-12-22T09:31:07.506Z,13.30
2023-12-22T09:33:34.436Z,13.40
2023-12-22T09:36:01.181Z,13.40
2023-12-22T09:38:28.931Z,13.40
2023-12-22T09:40:57.123Z,13.40
2023-12-22T09:43:25.012Z,13.40
2023-12-22T09:45:52.161Z,13.40
2023-12-22T09:48:21.782Z,13.40
2023-12-22T09:50:48.776Z,13.40
2023-12-22T09:53:16.208Z,13.40
2023-12-22T09:55:47.361Z,13.40
2023-12-22T09:58:16.078Z,13.40
2023-12-22T10:00:43.555Z,13.40
2023-12-22T10:03:15.427Z,13.50
2023-12-22T10:05:42.537Z,13.50
2023-12-22T10:08:13.265Z,13.40
2023-12-22T10:10:41.485Z,13.40
2023-12-22T10:13:13.276Z,13.40
2023-12-22T10:15:44.687Z,13.40
2023-12-22T10:18:12.003Z,13.40
2023-12-22T10:20:39.430Z,13.40
2023-12-22T10:23:07.218Z,13.40
2023-12-22T10:25:34.239Z,13.40
2023-12-22T10:28:01.125Z,13.50
2023-12-22T10:30:29.314Z,13.50
2023-12-22T10:32:56.420Z,13.50
2023-12-22T10:35:24.220Z,13.60
2023-12-22T10:37:55.091Z,13.60
2023-12-22T10:40:23.771Z,13.60
2023-12-22T10:42:51.817Z,13.70
2023-12-22T10:45:22.847Z,13.70
2023-12-22T10:47:54.537Z,13.70
2023-12-22T10:50:21.657Z,13.70
2023-12-22T10:52:52.575Z,13.70
2023-12-22T10:55:19.988Z,13.60
2023-12-22T10:57:50.208Z,13.60
2023-12-22T11:00:18.006Z,13.60
2023-12-22T11:02:50.283Z,13.60
2023-12-22T11:05:19.259Z,13.60
2023-12-22T11:07:51.841Z,13.70
2023-12-22T11:10:22.636Z,13.70
2023-12-22T11:12:50.432Z,13.80
2023-12-22T11:15:19.251Z,13.70
2023-12-22T11:17:50.058Z,13.70
2023-12-22T11:20:17.514Z,13.80
2023-12-22T11:22:45.685Z,13.70
2023-12-22T11:25:16.135Z,13.70
2023-12-22T11:27:45.830Z,13.70
2023-12-22T11:30:15.027Z,13.60
2023-12-22T11:32:44.956Z,13.70
2023-12-22T11:35:12.484Z,13.70
2023-12-22T11:37:40.251Z,13.70
2023-12-22T11:40:07.827Z,13.80
2023-12-22T11:42:46.495Z,13.80
2023-12-22T11:45:17.113Z,13.80
2023-12-22T11:47:44.164Z,13.70
2023-12-22T11:50:14.678Z,13.70
2023-12-22T11:52:42.163Z,13.70
2023-12-22T11:55:09.130Z,13.70
2023-12-22T11:57:39.229Z,13.70
2023-12-22T12:00:08.544Z,13.70
2023-12-22T12:02:39.382Z,13.70
2023-12-22T12:05:08.866Z,13.70
2023-12-22T12:07:45.754Z,13.80
2023-12-22T12:10:33.284Z,13.80
2023-12-22T12:13:13.311Z,13.90
2023-12-22T12:15:40.307Z,13.90
2023-12-22T12:18:07.369Z,13.90
2023-12-22T12:20:35.027Z,13.90
2023-12-22T12:23:06.003Z,13.90
2023-12-22T12:25:37.139Z,13.90
2023-12-22T12:28:09.406Z,14.00
2023-12-22T12:30:40.855Z,14.00
2023-12-22T12:33:12.244Z,14.10
2023-12-22T12:35:43.216Z,14.10
2023-12-22T12:38:13.107Z,14.10
2023-12-22T12:40:42.357Z,14.20
2023-12-22T12:43:09.664Z,14.10
2023-12-22T12:45:36.525Z,14.00
2023-12-22T12:48:05.564Z,14.00
2023-12-22T12:50:34.514Z,14.00
2023-12-22T12:53:02.366Z,14.00
2023-12-22T12:55:29.846Z,13.90
2023-12-22T12:57:57.436Z,13.90
2023-12-22T13:00:31.524Z,13.90
2023-12-22T13:03:04.180Z,13.90
2023-12-22T13:05:31.777Z,13.90
2023-12-22T13:08:12.838Z,13.80
2023-12-22T13:10:41.154Z,13.80
2023-12-22T13:13:08.410Z,13.80
2023-12-22T13:15:35.494Z,13.70
2023-12-22T13:18:02.561Z,13.70
2023-12-22T13:20:29.736Z,13.70
2023-12-22T13:22:56.752Z,13.70
2023-12-22T13:25:25.394Z,13.70
2023-12-22T13:27:53.640Z,13.70
2023-12-22T13:30:42.824Z,13.70
2023-12-22T13:33:11.410Z,13.70
2023-12-22T13:35:42.280Z,13.60
2023-12-22T13:38:11.908Z,13.70
2023-12-22T13:40:40.312Z,13.70
2023-12-22T13:43:08.809Z,13.70
2023-12-22T13:45:36.166Z,13.70
2023-12-22T13:48:03.239Z,13.70
2023-12-22T13:50:30.260Z,13.70
2023-12-22T13:52:57.241Z,13.70
2023-12-22T13:55:24.550Z,13.70
2023-12-22T13:58:01.494Z,13.60
2023-12-22T14:00:32.484Z,13.60
2023-12-22T14:02:59.980Z,13.60
2023-12-22T14:05:30.553Z,13.60
2023-12-22T14:07:58.837Z,13.60
2023-12-22T14:10:26.482Z,13.60
2023-12-22T14:12:53.333Z,13.60
2023-12-22T14:15:20.246Z,13.60
2023-12-22T14:17:47.924Z,13.60
2023-12-22T14:20:15.621Z,13.60
2023-12-22T14:22:42.522Z,13.50
2023-12-22T14:25:10.032Z,13.60
2023-12-22T14:27:36.767Z,13.60
2023-12-22T14:30:04.250Z,13.50
2023-12-22T14:32:31.325Z,13.60
2023-12-22T14:34:58.314Z,13.50
2023-12-22T14:37:25.185Z,13.60
2023-12-22T14:39:52.021Z,13.60
2023-12-22T14:42:19.708Z,13.60
2023-12-22T14:44:46.822Z,13.60
2023-12-22T14:47:14.555Z,13.50
2023-12-22T14:49:41.946Z,13.50
2023-12-22T14:52:09.356Z,13.60
2023-12-22T14:54:36.249Z,13.60
2023-12-22T14:57:03.115Z,13.60
2023-12-22T14:59:30.229Z,13.60
2023-12-22T15:01:57.068Z,13.60
2023-12-22T15:04:24.190Z,13.60
2023-12-22T15:07:00.503Z,13.60
2023-12-22T15:09:28.550Z,13.60
2023-12-22T15:11:57.005Z,13.60
2023-12-22T15:14:24.106Z,13.60
2023-12-22T15:16:53.107Z,13.60
2023-12-22T15:19:20.561Z,13.60
2023-12-22T15:21:47.690Z,13.60
2023-12-22T15:24:14.582Z,13.60
2023-12-22T15:26:41.278Z,13.60
2023-12-22T15:29:09.572Z,13.60
2023-12-22T15:31:37.951Z,13.60
2023-12-22T15:34:07.140Z,13.60
2023-12-22T15:36:35.374Z,13.50
2023-12-22T15:39:02.427Z,13.50
2023-12-22T15:41:32.570Z,13.50
2023-12-22T15:44:00.680Z,13.50
2023-12-22T15:46:27.841Z,13.40
2023-12-22T15:48:54.696Z,13.40
2023-12-22T15:51:22.008Z,13.40
2023-12-22T15:53:49.187Z,13.40
2023-12-22T15:56:18.158Z,13.40
2023-12-22T15:58:45.752Z,13.40
2023-12-22T16:01:15.747Z,13.40
2023-12-22T16:03:44.056Z,13.40
2023-12-22T16:06:11.032Z,13.40
2023-12-22T16:08:37.910Z,13.30
2023-12-22T16:11:06.021Z,13.30
2023-12-22T16:13:34.271Z,13.30
2023-12-22T16:16:02.842Z,13.30
2023-12-22T16:18:30.357Z,13.30
2023-12-22T16:20:57.445Z,13.30
2023-12-22T16:23:24.368Z,13.30
2023-12-22T16:25:52.879Z,13.30
2023-12-22T16:28:20.272Z,13.30
2023-12-22T16:30:50.325Z,13.30
2023-12-22T16:33:17.742Z,13.30
2023-12-22T16:35:44.763Z,13.30
2023-12-22T16:38:12.015Z,13.30
2023-12-22T16:40:40.438Z,13.30
2023-12-22T16:43:07.298Z,13.30
2023-12-22T16:45:34.121Z,13.30
2023-12-22T16:48:02.426Z,13.30
2023-12-22T16:50:29.723Z,13.30
2023-12-22T16:52:56.894Z,13.30
2023-12-22T16:55:23.960Z,13.30
2023-12-22T16:57:51.140Z,13.30
2023-12-22T17:00:20.794Z,13.30
2023-12-22T17:02:48.680Z,13.30
2023-12-22T17:05:16.387Z,13.30
2023-12-22T17:07:46.073Z,13.30
2023-12-22T17:10:13.395Z,13.20
2023-12-22T17:12:40.251Z,13.30
2023-12-22T17:15:07.786Z,13.20
2023-12-22T17:17:35.056Z,13.30
2023-12-22T17:20:03.514Z,13.30
2023-12-22T17:22:31.498Z,13.30
2023-12-22T17:24:58.621Z,13.30
2023-12-22T17:27:25.446Z,13.30
2023-12-22T17:29:52.307Z,13.30
2023-12-22T17:32:19.322Z,13.30
2023-12-22T17:34:46.248Z,13.20
2023-12-22T17:37:13.228Z,13.30
2023-12-22T17:39:40.048Z,13.30
2023-12-22T17:42:06.933Z,13.30
2023-12-22T17:44:33.785Z,13.30
2023-12-22T17:47:05.009Z,13.30
2023-12-22T17:49:33.152Z,13.30
2023-12-22T17:52:00.351Z,13.40
2023-12-22T17:54:27.300Z,13.40
2023-12-22T17:56:54.541Z,13.40
2023-12-22T17:59:21.590Z,13.40
2023-12-22T18:01:51.344Z,13.30
2023-12-22T18:04:18.363Z,13.30
2023-12-22T18:06:45.308Z,13.30
2023-12-22T18:09:12.501Z,13.30
2023-12-22T18:11:43.679Z,13.30
2023-12-22T18:14:11.046Z,13.30
2023-12-22T18:16:41.789Z,13.30
2023-12-22T18:19:09.968Z,13.30
2023-12-22T18:21:37.611Z,13.40
2023-12-22T18:24:04.868Z,13.40
2023-12-22T18:26:31.833Z,13.30
2023-12-22T18:28:58.857Z,13.30
2023-12-22T18:31:25.740Z,13.30
2023-12-22T18:33:52.831Z,13.30
2023-12-22T18:36:19.856Z,13.30
2023-12-22T18:38:47.078Z,13.30
2023-12-22T18:41:14.361Z,13.40
2023-12-22T18:43:41.264Z,13.40
2023-12-22T18:46:08.164Z,13.40
2023-12-22T18:48:35.827Z,13.30
2023-12-22T18:51:02.971Z,13.40
2023-12-22T18:53:29.846Z,13.30
2023-12-22T18:55:58.179Z,13.30
2023-12-22T18:58:25.195Z,13.30
2023-12-22T19:00:52.100Z,13.30
2023-12-22T19:03:19.233Z,13.30
2023-12-22T19:05:46.322Z,13.30
2023-12-22T19:08:13.273Z,13.30
2023-12-22T19:10:40.294Z,13.30
2023-12-22T19:13:07.348Z,13.30
2023-12-22T19:15:34.599Z,13.30
2023-12-22T19:18:01.854Z,13.30
2023-12-22T19:20:28.790Z,13.20
2023-12-22T19:22:56.275Z,13.20
2023-12-22T19:25:23.233Z,13.20
2023-12-22T19:27:51.202Z,13.10
2023-12-22T19:30:18.225Z,13.00
2023-12-22T19:32:48.813Z,13.00
2023-12-22T19:35:16.005Z,13.00
2023-12-22T19:37:43.074Z,12.90
2023-12-22T19:40:10.533Z,12.90
2023-12-22T19:42:37.396Z,12.80
2023-12-22T19:45:04.691Z,12.70
2023-12-22T19:47:31.543Z,12.70
2023-12-22T19:49:58.526Z,12.70
2023-12-22T19:52:25.759Z,12.60
2023-12-22T19:54:52.693Z,12.60
2023-12-22T19:57:19.546Z,12.60
2023-12-22T19:59:46.337Z,12.60
2023-12-22T20:02:13.296Z,12.70
2023-12-22T20:04:40.225Z,12.70
2023-12-22T20:07:07.219Z,12.70
2023-12-22T20:09:34.457Z,12.80
2023-12-22T20:12:02.015Z,12.90
2023-12-22T20:14:29.040Z,12.90
2023-12-22T20:16:55.953Z,13.00
2023-12-22T20:19:23.192Z,13.00
2023-12-22T20:21:50.087Z,13.10
2023-12-22T20:24:17.094Z,13.10
2023-12-22T20:26:44.149Z,13.10
2023-12-22T20:29:11.184Z,13.10
2023-12-22T20:31:38.497Z,13.10
2023-12-22T20:34:06.042Z,13.10
2023-12-22T20:36:33.114Z,13.10
2023-12-22T20:39:00.031Z,13.10
2023-12-22T20:41:26.952Z,13.10
2023-12-22T20:43:54.369Z,13.10
2023-12-22T20:46:21.644Z,13.10
2023-12-22T20:48:48.931Z,13.10
2023-12-22T20:51:15.804Z,13.10
2023-12-22T20:53:42.575Z,13.10
2023-12-22T20:56:21.943Z,13.10
2023-12-22T20:58:49.284Z,13.10
2023-12-22T21:01:16.913Z,13.10
2023-12-22T21:03:44.183Z,13.10
2023-12-22T21:06:11.300Z,13.10
2023-12-22T21:08:38.688Z,13.10
2023-12-22T21:11:08.303Z,13.10
2023-12-22T21:13:35.702Z,13.10
2023-12-22T21:16:06.937Z,13.10
2023-12-22T21:18:34.588Z,13.10
2023-12-22T21:21:05.504Z,13.10
2023-12-22T21:23:32.744Z,13.10
2023-12-22T21:26:00.105Z,13.10
2023-12-22T21:28:27.263Z,13.10
2023-12-22T21:30:54.688Z,13.10
2023-12-22T21:33:21.833Z,13.10
2023-12-22T21:35:48.890Z,13.00
2023-12-22T21:38:15.821Z,13.00
2023-12-22T21:40:42.973Z,13.00
2023-12-22T21:43:09.811Z,13.00
2023-12-22T21:45:39.477Z,13.00
2023-12-22T21:48:07.554Z,13.00
2023-12-22T21:50:34.674Z,13.00
2023-12-22T21:53:01.641Z,13.00
2023-12-22T21:55:28.336Z,13.00
2023-12-22T21:57:55.074Z,13.00
2023-12-22T22:00:23.782Z,12.90
2023-12-22T22:02:50.516Z,12.90
2023-12-22T22:05:17.509Z,12.90
2023-12-22T22:07:44.365Z,12.90
2023-12-22T22:10:11.228Z,12.90
2023-12-22T22:12:37.908Z,12.90
2023-12-22T22:15:05.306Z,12.90
2023-12-22T22:17:32.360Z,12.90
2023-12-22T22:19:59.167Z,12.90
2023-12-22T22:22:25.981Z,12.90
2023-12-22T22:24:52.768Z,12.90
2023-12-22T22:27:19.672Z,12.90
2023-12-22T22:29:46.650Z,12.90
2023-12-22T22:32:13.649Z,12.90
2023-12-22T22:34:41.343Z,12.90
2023-12-22T22:37:09.225Z,12.90
2023-12-22T22:39:38.904Z,12.90
2023-12-22T22:42:05.980Z,12.80
2023-12-22T22:44:32.753Z,12.90
2023-12-22T22:46:59.587Z,12.90
2023-12-22T22:49:26.629Z,12.80
2023-12-22T22:51:53.810Z,12.80
2023-12-22T22:54:21.481Z,12.80
2023-12-22T22:56:48.209Z,12.80
2023-12-22T22:59:16.470Z,12.80
2023-12-22T23:01:47.650Z,12.80
2023-12-22T23:04:14.756Z,12.80
2023-12-22T23:06:41.639Z,12.80
2023-12-22T23:09:08.690Z,12.90
2023-12-22T23:11:35.934Z,12.90
2023-12-22T23:14:02.982Z,12.80
2023-12-22T23:16:29.978Z,12.80
2023-12-22T23:18:57.137Z,12.80
2023-12-22T23:21:24.088Z,12.80
2023-12-22T23:23:50.860Z,12.80
2023-12-22T23:26:17.649Z,12.80
2023-12-22T23:28:44.497Z,12.80
2023-12-22T23:31:11.204Z,12.80
2023-12-22T23:33:38.062Z,12.80
2023-12-22T23:36:14.009Z,12.80
2023-12-22T23:38:48.847Z,12.80
2023-12-22T23:41:15.809Z,12.80
2023-12-22T23:43:42.660Z,12.80
2023-12-22T23:46:09.586Z,12.80
2023-12-22T23:48:37.506Z,12.80
2023-12-22T23:51:05.148Z,12.90
2023-12-22T23:53:31.904Z,12.80
2023-12-22T23:55:58.736Z,12.90
2023-12-22T23:58:25.447Z,12.90
